Time;durP1;ratioP1;P1;durP2;ratioP2;P2;SDS_P1;SDS_P2;PMS_P1;PMS_P2;Temp;Humidity;BMP_temperature;BMP_pressure;BME280_temperature;BME280_humidity;BME280_pressure;Samples;Min_cycle;Max_cycle;Signal;HPM_P1;HPM_P2
2022/12/11 00:01:22;;;;;;;110.40;36.70;;;;;;;0.05;100.00;100986.47;5227384;28;20041;-74
2022/12/11 00:03:54;;;;;;;116.70;38.55;;;;;;;0.06;100.00;100988.22;5232242;28;20025;-75
2022/12/11 00:06:25;;;;;;;107.00;34.28;;;;;;;0.08;100.00;100982.91;5226856;28;20091;-74
2022/12/11 00:08:56;;;;;;;115.13;36.15;;;;;;;0.13;100.00;100989.72;5229905;28;20044;-74
2022/12/11 00:11:27;;;;;;;108.97;34.17;;;;;;;0.12;100.00;100988.00;5224841;28;20035;-74
2022/12/11 00:13:59;;;;;;;103.03;34.28;;;;;;;0.10;100.00;100986.34;5224222;28;20091;-74
2022/12/11 00:16:30;;;;;;;110.28;35.10;;;;;;;0.12;100.00;100977.53;5218023;28;20710;-74
2022/12/11 00:19:02;;;;;;;118.40;35.25;;;;;;;0.11;100.00;100982.81;5221725;28;20048;-74
2022/12/11 00:21:33;;;;;;;98.13;33.00;;;;;;;0.17;100.00;100980.88;5220458;28;20037;-74
2022/12/11 00:24:05;;;;;;;103.05;33.20;;;;;;;0.11;100.00;100982.81;5221227;28;20033;-74
2022/12/11 00:26:36;;;;;;;108.75;34.97;;;;;;;0.18;100.00;100979.09;5219651;28;20029;-74
2022/12/11 00:29:13;;;;;;;103.10;33.40;;;;;;;0.18;100.00;100984.34;5219513;28;20037;-74
2022/12/11 00:31:44;;;;;;;103.30;33.15;;;;;;;0.16;100.00;100979.13;5229821;28;20227;-74
2022/12/11 00:34:15;;;;;;;107.63;36.00;;;;;;;0.23;100.00;100981.56;5225783;28;20037;-74
2022/12/11 00:36:47;;;;;;;100.53;34.03;;;;;;;0.18;100.00;100989.59;5225593;28;20748;-74
2022/12/11 00:39:18;;;;;;;99.65;33.55;;;;;;;0.18;100.00;100985.19;5219136;28;20510;-74
2022/12/11 00:41:50;;;;;;;97.68;33.65;;;;;;;0.21;100.00;100981.59;5223086;28;20041;-74
2022/12/11 00:44:21;;;;;;;109.78;34.92;;;;;;;0.19;100.00;100980.78;5225659;28;20032;-74
2022/12/11 00:46:52;;;;;;;103.60;33.90;;;;;;;0.20;100.00;100982.53;5223136;28;20040;-74
2022/12/11 00:49:23;;;;;;;101.07;32.95;;;;;;;0.19;100.00;100988.66;5223294;28;20029;-75
2022/12/11 00:51:55;;;;;;;90.38;33.10;;;;;;;0.26;100.00;100976.22;5221524;28;20200;-75
2022/12/11 00:54:26;;;;;;;96.35;32.67;;;;;;;0.23;100.00;100977.19;5223541;28;20037;-74
2022/12/11 00:56:58;;;;;;;90.70;32.10;;;;;;;0.24;100.00;100980.66;5222757;28;20225;-74
2022/12/11 00:59:29;;;;;;;92.95;32.22;;;;;;;0.21;100.00;100980.75;5223919;28;20136;-74
2022/12/11 01:02:00;;;;;;;95.78;31.73;;;;;;;0.18;100.00;100981.72;5223345;28;20918;-75
2022/12/11 01:04:35;;;;;;;91.72;32.38;;;;;;;0.20;100.00;100977.28;5221212;28;20032;-75
2022/12/11 01:07:06;;;;;;;;;;;;;;;0.29;100.00;100973.50;5224051;28;20029;-75
2022/12/11 01:12:27;;;;;;;95.78;33.55;;;;;;;0.23;100.00;100973.69;5223886;28;20415;-75
2022/12/11 01:14:58;;;;;;;81.80;31.17;;;;;;;0.24;100.00;100975.41;5222971;28;20038;-75
2022/12/11 01:17:30;;;;;;;91.30;32.80;;;;;;;0.23;100.00;100968.44;5222648;28;20127;-74
2022/12/11 01:20:03;;;;;;;89.80;32.47;;;;;;;0.26;100.00;100974.44;5223197;28;20039;-75
2022/12/11 01:22:34;;;;;;;91.68;32.67;;;;;;;0.24;100.00;100980.66;5223014;28;20484;-74
2022/12/11 01:25:06;;;;;;;82.05;31.15;;;;;;;0.24;100.00;100985.91;5222980;28;20107;-74
2022/12/11 01:27:38;;;;;;;82.28;31.60;;;;;;;0.23;100.00;100986.81;5221084;28;20037;-75
2022/12/11 01:30:10;;;;;;;79.18;29.30;;;;;;;0.37;100.00;100984.63;5222062;28;20040;-75
2022/12/11 01:32:41;;;;;;;76.90;29.38;;;;;;;0.29;100.00;100989.22;5224020;28;20123;-75
2022/12/11 01:35:13;;;;;;;82.07;30.67;;;;;;;0.29;100.00;100982.25;5219765;28;20550;-75
2022/12/11 01:37:44;;;;;;;85.55;30.73;;;;;;;0.29;100.00;100979.63;5219060;28;20033;-75
2022/12/11 01:40:18;;;;;;;83.93;29.90;;;;;;;0.28;100.00;100982.28;5219888;28;20033;-75
2022/12/11 01:42:50;;;;;;;85.07;29.67;;;;;;;0.28;100.00;100982.28;5223499;28;20120;-75
2022/12/11 01:45:35;;;;;;;79.60;30.02;;;;;;;0.26;100.00;100973.59;5223381;28;20037;-76
2022/12/11 01:48:09;;;;;;;83.22;30.80;;;;;;;0.29;100.00;100978.72;5222651;28;20032;-75
2022/12/11 01:50:47;;;;;;;77.30;30.55;;;;;;;0.33;100.00;100972.50;5223904;28;20029;-75
2022/12/11 01:53:24;;;;;;;79.85;30.13;;;;;;;0.30;100.00;100969.97;5218718;28;20431;-75
2022/12/11 01:55:57;;;;;;;79.53;29.85;;;;;;;0.34;100.00;100971.59;5235348;28;20049;-76
2022/12/11 01:58:32;;;;;;;75.45;30.35;;;;;;;0.32;100.00;100965.53;5226745;28;20037;-75
2022/12/11 02:01:05;;;;;;;78.03;29.67;;;;;;;0.29;100.00;100963.00;5226823;28;20040;-75
2022/12/11 02:03:36;;;;;;;80.78;29.02;;;;;;;0.35;100.00;100965.44;5226815;28;20037;-75
2022/12/11 02:06:35;;;;;;;70.00;27.42;;;;;;;0.32;100.00;100963.75;5224323;28;20030;-76
2022/12/11 02:09:11;;;;;;;75.60;28.67;;;;;;;0.28;100.00;100971.78;5225025;28;20055;-75
2022/12/11 02:11:45;;;;;;;70.63;28.08;;;;;;;0.31;100.00;100969.09;5229687;28;20044;-75
2022/12/11 02:14:36;;;;;;;70.30;28.80;;;;;;;0.35;100.00;100958.41;5223800;28;20044;-76
2022/12/11 02:17:22;;;;;;;75.07;30.48;;;;;;;0.31;100.00;100956.81;5230510;28;20148;-75
2022/12/11 02:20:24;;;;;;;73.63;29.08;;;;;;;0.32;100.00;100963.75;5226287;28;20025;-76
2022/12/11 02:22:58;;;;;;;70.38;28.10;;;;;;;0.30;100.00;100962.09;5226175;28;20523;-75
2022/12/11 02:25:58;;;;;;;68.30;27.35;;;;;;;0.27;100.00;100960.44;5226175;28;20045;-75
2022/12/11 02:28:33;;;;;;;69.57;27.38;;;;;;;0.36;100.00;100959.28;5224737;28;20161;-75
2022/12/11 02:31:25;;;;;;;69.40;28.20;;;;;;;0.33;100.00;100952.38;5223819;28;20037;-76
2022/12/11 02:34:02;;;;;;;68.22;27.42;;;;;;;0.38;100.00;100960.06;5226199;28;20071;-76
2022/12/11 02:36:39;;;;;;;70.80;27.92;;;;;;;0.33;100.00;100959.38;5225203;28;20029;-75
2022/12/11 02:39:14;;;;;;;64.75;26.75;;;;;;;0.33;100.00;100959.38;5226181;28;20036;-75
2022/12/11 02:41:48;;;;;;;64.88;27.15;;;;;;;0.44;100.00;100956.41;5225070;28;20029;-76
2022/12/11 02:44:29;;;;;;;68.93;27.33;;;;;;;0.43;100.00;100958.16;5226570;28;20030;-75
2022/12/11 02:47:03;;;;;;;67.72;26.98;;;;;;;0.38;100.00;100958.34;5231449;28;20152;-75
2022/12/11 02:49:35;;;;;;;64.88;26.27;;;;;;;0.35;100.00;100958.41;5222630;28;20099;-75
2022/12/11 02:52:06;;;;;;;64.18;25.98;;;;;;;0.34;100.00;100959.31;5225186;28;20033;-75
2022/12/11 02:54:39;;;;;;;57.80;25.85;;;;;;;0.39;100.00;100961.81;5221240;28;20111;-75
2022/12/11 02:57:16;;;;;;;58.55;23.90;;;;;;;0.33;100.00;100969.88;5218521;28;20046;-76
2022/12/11 02:59:47;;;;;;;52.60;24.42;;;;;;;0.30;100.00;100955.06;5228317;28;21612;-76
2022/12/11 03:02:18;;;;;;;53.55;23.58;;;;;;;0.28;100.00;100959.50;5222700;28;20040;-75
2022/12/11 03:04:50;;;;;;;54.75;24.38;;;;;;;0.27;100.00;100963.06;5223082;28;20024;-75
2022/12/11 03:07:27;;;;;;;53.95;23.13;;;;;;;0.27;100.00;100956.94;5221008;28;20652;-75
2022/12/11 03:09:58;;;;;;;54.22;23.73;;;;;;;0.26;100.00;100947.38;5223680;28;20052;-75
2022/12/11 03:12:33;;;;;;;50.78;21.98;;;;;;;0.23;100.00;100944.81;5224375;28;20021;-76
2022/12/11 03:15:09;;;;;;;45.78;21.63;;;;;;;0.21;100.00;100946.63;5220843;28;20040;-75
2022/12/11 03:18:11;;;;;;;42.75;19.98;;;;;;;0.21;100.00;100938.78;5225339;28;20037;-75
2022/12/11 03:21:05;;;;;;;44.40;20.58;;;;;;;0.18;100.00;100939.75;5228019;28;20045;-75
2022/12/11 03:23:47;;;;;;;42.10;20.52;;;;;;;0.11;100.00;100935.59;5230389;28;20068;-75
2022/12/11 03:26:19;;;;;;;43.78;20.17;;;;;;;0.10;100.00;100947.00;5227371;28;20037;-75
2022/12/11 03:29:01;;;;;;;39.83;19.65;;;;;;;0.09;100.00;100926.91;5228001;28;20116;-75
2022/12/11 03:31:44;;;;;;;40.08;20.40;;;;;;;0.07;100.00;100945.31;5224534;28;20039;-75
2022/12/11 03:34:40;;;;;;;37.85;18.65;;;;;;;0.08;100.00;100927.84;5225240;28;22092;-75
2022/12/11 03:37:14;;;;;;;39.05;19.20;;;;;;;0.02;100.00;100936.75;5221193;28;20037;-75
2022/12/11 03:39:51;;;;;;;41.60;19.27;;;;;;;0.04;100.00;100931.44;5227532;28;20626;-75
2022/12/11 03:42:23;;;;;;;41.00;18.70;;;;;;;0.14;100.00;100933.72;5227238;28;20033;-75
2022/12/11 03:44:59;;;;;;;40.58;18.30;;;;;;;0.06;100.00;100934.84;5225470;28;20044;-75
2022/12/11 03:47:32;;;;;;;42.03;19.42;;;;;;;0.03;100.00;100925.34;5226949;28;20025;-75
2022/12/11 03:50:05;;;;;;;40.45;18.98;;;;;;;0.04;100.00;100928.81;5226054;28;20052;-75
2022/12/11 03:52:40;;;;;;;37.93;18.53;;;;;;;0.05;100.00;100923.53;5226327;28;20878;-75
2022/12/11 03:55:14;;;;;;;35.60;17.73;;;;;;;0.04;100.00;100919.19;5226284;28;20519;-75
2022/12/11 03:57:46;;;;;;;37.17;17.85;;;;;;;-0.01;100.00;100907.97;5222183;28;20115;-75
2022/12/11 04:00:19;;;;;;;40.45;18.42;;;;;;;0.05;100.00;100906.94;5226122;28;20037;-75
2022/12/11 04:05:43;;;;;;;36.08;17.42;;;;;;;0.02;100.00;100907.91;5225645;28;20403;-75
2022/12/11 04:08:17;;;;;;;37.47;18.17;;;;;;;0.07;100.00;100911.22;5223103;28;20038;-75
2022/12/11 04:11:33;;;;;;;39.75;19.10;;;;;;;0.13;100.00;100916.25;5223991;28;20487;-75
2022/12/11 04:13:43;;;;;;;39.60;17.73;;;;;;;0.12;100.00;100917.19;5225424;28;20041;-75
2022/12/11 04:16:14;;;;;;;40.13;18.88;;;;;;;0.15;100.00;100913.59;5223349;28;20038;-76
2022/12/11 04:24:25;;;;;;;38.80;17.63;;;;;;;0.16;100.00;100912.69;5225344;28;20045;-75
2022/12/11 04:26:56;;;;;;;37.22;19.25;;;;;;;0.15;100.00;100903.09;5223036;28;20361;-75
2022/12/11 04:29:28;;;;;;;36.50;17.58;;;;;;;0.15;100.00;100911.84;5224301;28;20057;-75
2022/12/11 04:31:59;;;;;;;39.63;18.67;;;;;;;0.15;100.00;100908.34;5224288;28;20458;-75
2022/12/11 04:34:30;;;;;;;39.58;19.50;;;;;;;0.16;100.00;100907.44;5224184;28;20488;-75
2022/12/11 04:37:02;;;;;;;38.80;19.58;;;;;;;0.15;100.00;100903.97;5223618;28;20053;-75
2022/12/11 04:39:33;;;;;;;39.38;18.92;;;;;;;0.31;100.00;100896.44;5222328;28;20455;-75
2022/12/11 04:42:04;;;;;;;39.88;18.77;;;;;;;0.21;100.00;100905.50;5218685;28;20029;-75
2022/12/11 04:44:36;;;;;;;38.47;18.30;;;;;;;0.16;100.00;100904.81;5216729;28;20505;-75
2022/12/11 04:47:07;;;;;;;38.58;19.48;;;;;;;0.18;100.00;100901.22;5218579;28;20017;-75
2022/12/11 04:49:38;;;;;;;41.15;19.83;;;;;;;0.17;100.00;100904.78;5216433;28;20498;-76
2022/12/11 04:52:09;;;;;;;38.75;18.88;;;;;;;0.15;100.00;100898.72;5219832;28;20887;-76
2022/12/11 04:54:41;;;;;;;37.92;18.98;;;;;;;0.16;100.00;100903.06;5217560;28;20087;-75
2022/12/11 04:57:12;;;;;;;39.75;20.15;;;;;;;0.13;100.00;100903.13;5218795;28;20459;-76
2022/12/11 04:59:43;;;;;;;39.83;18.70;;;;;;;0.13;100.00;100900.50;5218378;28;20061;-75
2022/12/11 05:02:15;;;;;;;39.15;19.35;;;;;;;0.13;100.00;100892.66;5219057;28;20116;-75
2022/12/11 05:04:46;;;;;;;40.13;19.33;;;;;;;0.12;100.00;100888.31;5215433;28;20075;-76
2022/12/11 05:07:18;;;;;;;36.95;18.27;;;;;;;0.11;100.00;100891.00;5216462;28;20044;-75
2022/12/11 05:09:49;;;;;;;39.47;19.73;;;;;;;0.08;100.00;100891.09;5213847;28;20509;-76
2022/12/11 05:12:20;;;;;;;41.33;19.63;;;;;;;0.08;100.00;100886.72;5218421;28;20067;-75
2022/12/11 05:14:53;;;;;;;38.90;19.40;;;;;;;0.09;100.00;100893.66;5218162;28;20096;-76
2022/12/11 05:17:24;;;;;;;39.60;19.95;;;;;;;0.15;100.00;100896.09;5217618;28;20700;-76
2022/12/11 05:19:55;;;;;;;38.45;19.33;;;;;;;0.18;100.00;100895.13;5220303;28;20080;-75
2022/12/11 05:22:29;;;;;;;39.13;18.10;;;;;;;0.19;100.00;100887.22;5217611;28;20112;-75
2022/12/11 05:25:00;;;;;;;37.77;18.70;;;;;;;0.19;100.00;100881.97;5219447;28;20032;-75
2022/12/11 05:27:32;;;;;;;39.55;19.50;;;;;;;0.19;100.00;100886.34;5216932;28;20017;-75
2022/12/11 05:30:04;;;;;;;35.60;18.92;;;;;;;0.32;100.00;100887.66;5216894;28;20140;-76
2022/12/11 05:32:35;;;;;;;37.17;19.55;;;;;;;0.23;100.00;100880.13;5217619;28;20041;-75
2022/12/11 05:35:07;;;;;;;40.67;19.38;;;;;;;0.21;100.00;100876.66;5217775;28;20033;-75
2022/12/11 05:37:38;;;;;;;38.35;19.23;;;;;;;0.23;100.00;100881.84;5217915;28;20025;-76
2022/12/11 05:40:11;;;;;;;36.42;19.15;;;;;;;0.32;100.00;100878.94;5217725;28;20456;-75
2022/12/11 05:42:42;;;;;;;35.97;19.52;;;;;;;0.24;100.00;100883.59;5215024;28;20167;-75
2022/12/11 05:45:14;;;;;;;38.42;17.98;;;;;;;0.21;100.00;100873.19;5217184;28;20208;-75
2022/12/11 05:47:45;;;;;;;35.88;18.08;;;;;;;0.18;100.00;100882.88;5221337;28;20040;-75
2022/12/11 05:50:17;;;;;;;36.85;18.05;;;;;;;0.29;100.00;100889.50;5211721;28;20029;-75
2022/12/11 05:52:48;;;;;;;35.22;17.55;;;;;;;0.21;100.00;100887.16;5214519;28;20037;-75
2022/12/11 05:55:19;;;;;;;36.28;17.98;;;;;;;0.22;100.00;100886.25;5222155;28;20025;-75
2022/12/11 05:57:52;;;;;;;35.35;18.35;;;;;;;0.21;100.00;100888.91;5218081;28;20060;-75
2022/12/11 06:00:23;;;;;;;33.42;18.40;;;;;;;0.17;100.00;100891.66;5221203;28;20026;-76
2022/12/11 06:02:54;;;;;;;35.05;17.58;;;;;;;0.23;100.00;100897.59;5216083;28;22326;-75
2022/12/11 06:05:26;;;;;;;32.92;17.65;;;;;;;0.22;100.00;100894.13;5218014;28;20025;-75
2022/12/11 06:07:57;;;;;;;35.17;17.08;;;;;;;0.25;100.00;100893.16;5217854;28;20082;-76
2022/12/11 06:10:28;;;;;;;36.03;18.33;;;;;;;0.21;100.00;100889.78;5219480;28;20339;-76
2022/12/11 06:13:00;;;;;;;34.47;17.65;;;;;;;0.27;100.00;100886.97;5231950;28;20030;-75
2022/12/11 06:15:31;;;;;;;36.72;18.88;;;;;;;0.31;100.00;100892.97;5217174;28;20064;-76
2022/12/11 06:18:03;;;;;;;34.30;18.50;;;;;;;0.25;100.00;100891.41;5215103;28;20057;-75
2022/12/11 06:20:34;;;;;;;32.97;17.95;;;;;;;0.24;100.00;100886.22;5218434;28;20029;-76
2022/12/11 06:23:05;;;;;;;37.30;18.55;;;;;;;0.23;100.00;100879.22;5215625;28;20044;-75
2022/12/11 06:25:38;;;;;;;32.40;17.15;;;;;;;0.37;100.00;100892.75;5215050;28;20569;-75
2022/12/11 06:28:10;;;;;;;34.10;17.52;;;;;;;0.31;100.00;100882.47;5215715;28;20113;-76
2022/12/11 06:30:41;;;;;;;33.60;17.98;;;;;;;0.30;100.00;100878.97;5216407;28;20040;-75
2022/12/11 06:33:12;;;;;;;30.92;17.00;;;;;;;0.37;100.00;100887.50;5213807;28;20041;-75
2022/12/11 06:35:44;;;;;;;32.13;17.35;;;;;;;0.36;100.00;100884.00;5221523;28;20021;-75
2022/12/11 06:38:16;;;;;;;32.53;17.02;;;;;;;0.35;100.00;100884.09;5225718;28;20036;-76
2022/12/11 06:40:58;;;;;;;30.02;16.58;;;;;;;0.35;100.00;100890.19;5229607;28;20087;-76
2022/12/11 06:43:33;;;;;;;32.65;16.98;;;;;;;0.38;100.00;100884.84;5226536;28;20033;-76
2022/12/11 06:46:07;;;;;;;34.90;17.70;;;;;;;0.34;100.00;100882.34;5231173;28;20620;-76
2022/12/11 06:48:41;;;;;;;33.78;17.10;;;;;;;0.37;100.00;100883.13;5227417;28;20026;-75
2022/12/11 06:51:15;;;;;;;33.25;16.90;;;;;;;0.46;100.00;100876.72;5230163;28;20459;-76
2022/12/11 06:53:51;;;;;;;35.17;17.63;;;;;;;0.42;100.00;100880.31;5228822;28;20162;-75
2022/12/11 06:56:23;;;;;;;32.80;17.83;;;;;;;0.43;100.00;100871.56;5230209;28;20110;-76
2022/12/11 06:58:55;;;;;;;37.38;18.75;;;;;;;0.39;100.00;100876.03;5227266;28;20037;-75
2022/12/11 07:01:27;;;;;;;34.83;17.65;;;;;;;0.38;100.00;100874.34;5226788;28;20060;-75
2022/12/11 07:03:59;;;;;;;35.88;18.15;;;;;;;0.48;100.00;100877.50;5231850;28;20436;-76
2022/12/11 07:06:30;;;;;;;35.97;17.77;;;;;;;0.38;100.00;100876.97;5230941;28;20112;-76
2022/12/11 07:09:06;;;;;;;33.17;16.45;;;;;;;0.40;100.00;100890.03;5232024;28;20040;-75
2022/12/11 07:11:37;;;;;;;33.60;16.65;;;;;;;0.52;100.00;100891.41;5228837;28;20424;-76
2022/12/11 07:14:08;;;;;;;32.30;16.92;;;;;;;0.45;100.00;100895.13;5227914;28;20078;-75
2022/12/11 07:16:39;;;;;;;32.85;17.42;;;;;;;0.43;100.00;100896.94;5230011;28;20037;-76
2022/12/11 07:19:11;;;;;;;32.38;17.02;;;;;;;0.45;100.00;100888.09;5227797;28;20029;-75
2022/12/11 07:21:42;;;;;;;33.83;16.90;;;;;;;0.41;100.00;100893.53;5230384;28;20079;-75
2022/12/11 07:24:14;;;;;;;32.30;17.65;;;;;;;0.37;100.00;100905.88;5225897;28;20376;-76
2022/12/11 07:26:45;;;;;;;35.33;17.65;;;;;;;0.38;100.00;100895.34;5227533;28;20645;-75
2022/12/11 07:29:17;;;;;;;32.83;17.10;;;;;;;0.35;100.00;100905.94;5229297;28;20033;-76
2022/12/11 07:31:49;;;;;;;35.47;16.88;;;;;;;0.48;100.00;100913.38;5226876;28;20033;-76
2022/12/11 07:34:20;;;;;;;34.10;17.60;;;;;;;0.46;100.00;100908.22;5226669;28;20032;-75
2022/12/11 07:36:52;;;;;;;34.35;17.50;;;;;;;0.40;100.00;100905.75;5227392;28;20017;-76
2022/12/11 07:39:23;;;;;;;33.72;16.73;;;;;;;0.40;100.00;100903.13;5229045;28;20035;-76
2022/12/11 07:41:54;;;;;;;32.60;16.63;;;;;;;0.48;100.00;100900.25;5230007;28;20478;-76
2022/12/11 07:44:25;;;;;;;31.30;16.52;;;;;;;0.43;100.00;100907.44;5227572;28;20443;-75
2022/12/11 07:46:57;;;;;;;32.03;16.77;;;;;;;0.49;100.00;100902.00;5229335;28;20026;-75
2022/12/11 07:49:29;;;;;;;34.35;17.45;;;;;;;0.52;100.00;100900.13;5226134;28;20037;-76
2022/12/11 07:52:00;;;;;;;34.80;18.17;;;;;;;0.48;100.00;100900.25;5228393;28;20430;-76
2022/12/11 07:54:31;;;;;;;36.88;18.23;;;;;;;0.43;100.00;100908.31;5225935;28;20048;-76
2022/12/11 07:57:02;;;;;;;35.60;16.85;;;;;;;0.39;100.00;100902.28;5226403;28;20141;-76
2022/12/11 07:59:34;;;;;;;33.47;17.48;;;;;;;0.48;100.00;100902.88;5225870;28;20029;-76
2022/12/11 08:02:05;;;;;;;36.78;18.13;;;;;;;0.39;100.00;100899.66;5226830;28;20028;-76
2022/12/11 08:04:37;;;;;;;36.92;17.50;;;;;;;0.47;100.00;100902.03;5225396;28;20060;-75
2022/12/11 08:07:08;;;;;;;36.83;18.65;;;;;;;0.41;100.00;100902.25;5227358;28;20102;-75
2022/12/11 08:09:39;;;;;;;34.88;18.23;;;;;;;0.37;100.00;100901.50;5224682;28;20057;-76
2022/12/11 08:12:12;;;;;;;36.40;18.45;;;;;;;0.38;100.00;100904.97;5226913;28;20041;-75
2022/12/11 08:14:43;;;;;;;33.70;18.33;;;;;;;0.37;100.00;100898.88;5227580;28;20032;-75
2022/12/11 08:17:14;;;;;;;37.55;18.67;;;;;;;0.42;100.00;100905.72;5228128;28;20503;-76
2022/12/11 08:19:45;;;;;;;36.60;18.63;;;;;;;0.44;100.00;100902.16;5225823;28;20214;-76
2022/12/11 08:22:17;;;;;;;34.35;17.92;;;;;;;0.44;100.00;100899.53;5228958;28;20034;-75
2022/12/11 08:24:48;;;;;;;37.22;17.45;;;;;;;0.41;100.00;100899.63;5226333;28;20042;-75
2022/12/11 08:27:19;;;;;;;38.85;19.05;;;;;;;0.41;100.00;100902.25;5225961;28;20133;-76
2022/12/11 08:29:51;;;;;;;39.15;19.38;;;;;;;0.51;100.00;100901.00;5227788;28;20125;-76
2022/12/11 08:32:22;;;;;;;39.83;18.92;;;;;;;0.50;100.00;100904.56;5228798;28;20517;-76
2022/12/11 08:34:53;;;;;;;39.60;19.23;;;;;;;0.48;100.00;100910.75;5223650;28;20411;-76
2022/12/11 08:37:24;;;;;;;41.88;18.80;;;;;;;0.48;100.00;100906.38;5226634;28;20040;-76
2022/12/11 08:39:56;;;;;;;40.95;18.30;;;;;;;0.47;100.00;100909.06;5230977;28;20600;-76
2022/12/11 08:42:27;;;;;;;39.00;18.70;;;;;;;0.47;100.00;100912.53;5225840;28;20499;-76
2022/12/11 08:44:58;;;;;;;40.58;19.80;;;;;;;0.45;100.00;100906.47;5225616;28;20056;-76
2022/12/11 08:47:30;;;;;;;41.40;19.85;;;;;;;0.51;100.00;100903.63;5225691;28;20057;-76
2022/12/11 08:50:03;;;;;;;37.58;18.30;;;;;;;0.46;100.00;100902.09;5226740;28;20396;-75
2022/12/11 08:52:34;;;;;;;38.00;18.88;;;;;;;0.54;100.00;100895.69;5225631;28;20037;-76
2022/12/11 08:55:06;;;;;;;38.08;19.13;;;;;;;0.49;100.00;100897.59;5224400;28;20053;-76
2022/12/11 08:57:38;;;;;;;39.13;19.20;;;;;;;0.52;100.00;100900.13;5228842;28;20047;-76
2022/12/11 09:00:11;;;;;;;42.40;19.52;;;;;;;0.55;100.00;100888.66;5228402;28;20494;-75
2022/12/11 09:02:42;;;;;;;35.72;18.52;;;;;;;0.50;100.00;100899.31;5228627;28;20029;-75
2022/12/11 09:05:14;;;;;;;40.28;21.13;;;;;;;0.52;100.00;100901.91;5227132;28;20423;-75
2022/12/11 09:07:45;;;;;;;41.38;19.48;;;;;;;0.49;100.00;100900.22;5224275;28;20087;-76
2022/12/11 09:10:17;;;;;;;47.72;25.80;;;;;;;0.55;100.00;100893.91;5224551;28;20044;-76
2022/12/11 09:12:48;;;;;;;45.58;23.02;;;;;;;0.51;100.00;100894.91;5225137;28;20464;-76
2022/12/11 09:15:19;;;;;;;36.20;18.70;;;;;;;0.47;100.00;100888.91;5228666;28;20495;-76
2022/12/11 09:17:51;;;;;;;43.97;25.27;;;;;;;0.50;100.00;100891.44;5225696;28;20181;-75
2022/12/11 09:20:22;;;;;;;38.38;21.25;;;;;;;0.48;100.00;100893.25;5227529;28;20523;-76
2022/12/11 09:22:53;;;;;;;39.20;20.85;;;;;;;0.52;100.00;100887.00;5229822;28;20451;-75
2022/12/11 09:25:24;;;;;;;39.75;20.17;;;;;;;0.47;100.00;100894.16;5227581;28;20036;-76
2022/12/11 09:27:56;;;;;;;34.53;18.50;;;;;;;0.44;100.00;100896.03;5228255;28;20025;-76
2022/12/11 09:30:27;;;;;;;40.75;21.17;;;;;;;0.45;100.00;100893.34;5224791;28;20029;-75
2022/12/11 09:32:58;;;;;;;41.08;21.50;;;;;;;0.45;100.00;100901.22;5229660;28;20346;-76
2022/12/11 09:35:30;;;;;;;39.92;20.00;;;;;;;0.42;100.00;100893.44;5224501;28;20037;-75
2022/12/11 09:38:01;;;;;;;39.97;20.23;;;;;;;0.44;100.00;100893.41;5226608;28;20065;-75
2022/12/11 09:40:33;;;;;;;44.42;21.08;;;;;;;0.52;100.00;100886.16;5224261;28;20033;-76
2022/12/11 09:43:30;;;;;;;39.10;20.70;;;;;;;0.56;100.00;100887.75;5221986;28;20060;-75
2022/12/11 09:46:04;;;;;;;39.63;19.27;;;;;;;0.53;100.00;100887.84;5221724;28;20052;-75
2022/12/11 09:48:36;;;;;;;39.40;20.58;;;;;;;0.57;100.00;100887.69;5231244;28;20024;-75
2022/12/11 09:51:25;;;;;;;40.15;20.08;;;;;;;0.63;100.00;100885.75;5225911;28;20534;-76
2022/12/11 09:54:00;;;;;;;38.13;19.45;;;;;;;0.53;100.00;100893.09;5228728;28;20034;-75
2022/12/11 09:56:38;;;;;;;36.75;18.90;;;;;;;0.50;100.00;100880.94;5229231;28;20054;-76
2022/12/11 09:59:35;;;;;;;39.65;19.08;;;;;;;0.52;100.00;100873.88;5229685;28;20502;-75
2022/12/11 10:02:22;;;;;;;37.97;18.42;;;;;;;0.52;100.00;100876.50;5226790;28;20034;-75
2022/12/11 10:05:18;;;;;;;38.22;19.35;;;;;;;0.60;100.00;100878.84;5243333;28;20434;-76
2022/12/11 10:08:02;;;;;;;37.95;18.73;;;;;;;0.67;100.00;100882.13;5223462;28;20033;-75
2022/12/11 10:10:50;;;;;;;38.00;18.75;;;;;;;0.65;100.00;100881.31;5229970;28;20091;-75
2022/12/11 10:13:48;;;;;;;35.08;18.45;;;;;;;0.66;100.00;100881.25;5230256;28;20083;-75
2022/12/11 10:16:39;;;;;;;33.92;17.92;;;;;;;0.63;100.00;100878.72;5229680;28;20060;-75
2022/12/11 10:19:34;;;;;;;33.38;16.90;;;;;;;0.62;100.00;100878.81;5232108;28;20021;-75
2022/12/11 10:22:14;;;;;;;33.72;18.42;;;;;;;0.65;100.00;100876.06;5233606;28;20582;-75
2022/12/11 10:24:52;;;;;;;33.40;17.30;;;;;;;0.64;100.00;100884.88;5233313;28;20099;-75
2022/12/11 10:27:32;;;;;;;36.28;16.95;;;;;;;0.64;100.00;100877.00;5231764;28;20029;-76
2022/12/11 10:30:18;;;;;;;36.50;16.73;;;;;;;0.69;100.00;100878.53;5250572;28;20033;-75
2022/12/11 10:32:49;;;;;;;35.92;17.48;;;;;;;0.70;100.00;100868.88;5232413;28;20029;-77
2022/12/11 10:35:32;;;;;;;38.75;17.73;;;;;;;0.75;100.00;100870.44;5232403;28;20079;-75
2022/12/11 10:38:13;;;;;;;37.30;17.27;;;;;;;0.72;100.00;100870.53;5229593;28;20491;-75
2022/12/11 10:40:50;;;;;;;32.75;16.75;;;;;;;0.69;100.00;100867.16;5234152;28;20033;-75
2022/12/11 10:43:33;;;;;;;34.47;17.88;;;;;;;0.85;100.00;100870.97;5232841;28;20045;-76
2022/12/11 10:46:13;;;;;;;33.35;16.50;;;;;;;0.78;100.00;100869.47;5233085;28;20037;-75
2022/12/11 10:48:47;;;;;;;33.38;17.23;;;;;;;0.73;100.00;100867.00;5233077;28;20110;-75
2022/12/11 10:51:20;;;;;;;31.02;17.23;;;;;;;0.72;100.00;100862.66;5234548;28;20480;-75
2022/12/11 10:53:56;;;;;;;30.95;16.67;;;;;;;0.72;100.00;100861.81;5235928;28;20029;-75
2022/12/11 10:56:30;;;;;;;37.80;17.50;;;;;;;0.71;100.00;100852.19;5233159;28;20057;-75
2022/12/11 10:59:02;;;;;;;31.65;16.20;;;;;;;0.83;100.00;100846.53;5234614;28;20037;-75
2022/12/11 11:01:33;;;;;;;35.22;18.58;;;;;;;0.84;100.00;100848.22;5234244;28;20030;-75
2022/12/11 11:04:13;;;;;;;35.83;19.45;;;;;;;0.83;100.00;100854.41;5234138;28;20021;-75
2022/12/11 11:06:45;;;;;;;35.58;18.67;;;;;;;0.82;100.00;100844.81;5232795;28;20029;-76
2022/12/11 11:09:42;;;;;;;37.60;18.52;;;;;;;0.89;100.00;100851.56;5231403;28;20049;-75
2022/12/11 11:12:18;;;;;;;37.88;18.38;;;;;;;0.89;100.00;100848.94;5231961;28;20041;-75
2022/12/11 11:14:59;;;;;;;36.58;18.85;;;;;;;0.93;100.00;100854.94;5233465;28;20154;-75
2022/12/11 11:17:39;;;;;;;32.35;16.75;;;;;;;0.90;100.00;100847.16;5232485;28;20036;-76
2022/12/11 11:20:16;;;;;;;33.50;17.35;;;;;;;0.95;100.00;100845.22;5231804;28;20033;-76
2022/12/11 11:22:56;;;;;;;32.50;17.65;;;;;;;0.93;100.00;100845.28;5232779;28;20124;-75
2022/12/11 11:25:30;;;;;;;35.55;18.30;;;;;;;0.97;100.00;100835.50;5234749;28;20446;-75
2022/12/11 11:28:04;;;;;;;34.88;17.85;;;;;;;1.01;100.00;100841.53;5231650;28;20034;-75
2022/12/11 11:30:39;;;;;;;33.40;17.80;;;;;;;1.01;100.00;100845.00;5233995;28;20479;-76
2022/12/11 11:33:12;;;;;;;33.15;17.33;;;;;;;1.10;100.00;100841.19;5232853;28;20478;-75
2022/12/11 11:35:52;;;;;;;34.10;16.77;;;;;;;1.07;100.00;100849.16;5232175;28;20391;-75
2022/12/11 11:38:48;;;;;;;34.42;17.77;;;;;;;1.15;100.00;100847.97;5231695;28;20029;-76
2022/12/11 11:41:28;;;;;;;35.42;18.05;;;;;;;1.13;100.00;100844.56;5232780;28;20045;-75
2022/12/11 11:44:07;;;;;;;32.83;17.70;;;;;;;1.10;100.00;100842.03;5232598;28;20021;-75
2022/12/11 11:46:47;;;;;;;36.38;18.92;;;;;;;1.14;100.00;100838.38;5233157;28;20047;-75
2022/12/11 11:49:35;;;;;;;35.95;18.40;;;;;;;1.19;100.00;100835.59;5230039;28;20041;-75
2022/12/11 11:52:16;;;;;;;36.03;17.83;;;;;;;1.17;100.00;100835.63;5232556;28;20510;-75
2022/12/11 11:55:05;;;;;;;35.33;18.80;;;;;;;1.26;100.00;100830.94;5232784;28;20033;-75